createdAt,value
2023-08-03T00:00:15.209Z,946.4
2023-08-03T00:01:17.213Z,946.4
2023-08-03T00:02:19.127Z,946.4
2023-08-03T00:03:24.328Z,946.4
2023-08-03T00:04:29.694Z,946.4
2023-08-03T00:05:31.651Z,946.4
2023-08-03T00:06:33.635Z,946.4
2023-08-03T00:07:35.526Z,946.4
2023-08-03T00:08:37.205Z,946.4
2023-08-03T00:09:39.153Z,946.5
2023-08-03T00:10:40.985Z,946.5
2023-08-03T00:11:43.571Z,946.5
2023-08-03T00:12:45.928Z,946.4
2023-08-03T00:13:47.622Z,946.4
2023-08-03T00:14:49.402Z,946.5
2023-08-03T00:15:51.421Z,946.5
2023-08-03T00:16:53.308Z,946.5
2023-08-03T00:17:55.283Z,946.4
2023-08-03T00:18:57.176Z,946.5
2023-08-03T00:19:58.974Z,946.5
2023-08-03T00:21:00.701Z,946.4
2023-08-03T00:22:02.568Z,946.4
2023-08-03T00:23:04.311Z,946.5
2023-08-03T00:24:06.016Z,946.5
2023-08-03T00:25:07.873Z,946.4
2023-08-03T00:26:09.622Z,946.5
2023-08-03T00:27:11.382Z,946.5
2023-08-03T00:28:13.163Z,946.5
2023-08-03T00:29:14.902Z,946.5
2023-08-03T00:30:19.525Z,946.4
2023-08-03T00:31:21.386Z,946.4
2023-08-03T00:32:23.291Z,946.4
2023-08-03T00:33:25.050Z,946.4
2023-08-03T00:34:27.257Z,946.4
2023-08-03T00:35:29.075Z,946.4
2023-08-03T00:36:30.737Z,946.4
2023-08-03T00:37:32.484Z,946.4
2023-08-03T00:38:34.222Z,946.4
2023-08-03T00:39:36.266Z,946.4
2023-08-03T00:40:37.998Z,946.4
2023-08-03T00:41:39.885Z,946.4
2023-08-03T00:42:41.640Z,946.4
2023-08-03T00:43:43.361Z,946.4
2023-08-03T00:44:45.085Z,946.4
2023-08-03T00:45:49.807Z,946.4
2023-08-03T00:46:51.812Z,946.4
2023-08-03T00:47:53.955Z,946.4
2023-08-03T00:48:55.966Z,946.4
2023-08-03T00:49:57.750Z,946.4
2023-08-03T00:50:59.559Z,946.4
2023-08-03T00:52:01.249Z,946.4
2023-08-03T00:53:02.972Z,946.4
2023-08-03T00:54:04.729Z,946.4
2023-08-03T00:55:06.470Z,946.4
2023-08-03T00:56:08.416Z,946.4
2023-08-03T00:57:10.109Z,946.4
2023-08-03T00:58:11.798Z,946.4
2023-08-03T00:59:13.538Z,946.4
2023-08-03T01:00:15.260Z,946.4
2023-08-03T01:01:17.210Z,946.3
2023-08-03T01:02:19.355Z,946.3
2023-08-03T01:03:21.272Z,946.4
2023-08-03T01:04:23.184Z,946.4
2023-08-03T01:05:24.892Z,946.4
2023-08-03T01:06:27.110Z,946.3
2023-08-03T01:07:29.204Z,946.4
2023-08-03T01:08:30.906Z,946.4
2023-08-03T01:09:32.681Z,946.4
2023-08-03T01:10:34.629Z,946.4
2023-08-03T01:11:36.570Z,946.4
2023-08-03T01:12:38.319Z,946.4
2023-08-03T01:13:40.069Z,946.4
2023-08-03T01:14:41.933Z,946.4
2023-08-03T01:15:43.683Z,946.4
2023-08-03T01:16:45.519Z,946.4
2023-08-03T01:17:47.412Z,946.4
2023-08-03T01:18:51.932Z,946.4
2023-08-03T01:19:53.772Z,946.4
2023-08-03T01:20:55.486Z,946.4
2023-08-03T01:21:57.253Z,946.4
2023-08-03T01:22:58.991Z,946.4
2023-08-03T01:24:00.724Z,946.4
2023-08-03T01:25:02.475Z,946.3
2023-08-03T01:26:04.200Z,946.4
2023-08-03T01:27:05.933Z,946.4
2023-08-03T01:28:07.665Z,946.4
2023-08-03T01:29:09.380Z,946.4
2023-08-03T01:30:11.196Z,946.4
2023-08-03T01:31:13.188Z,946.4
2023-08-03T01:32:15.086Z,946.4
2023-08-03T01:33:17.423Z,946.4
2023-08-03T01:34:19.626Z,946.4
2023-08-03T01:35:24.072Z,946.4
2023-08-03T01:36:25.763Z,946.4
2023-08-03T01:37:27.504Z,946.4
2023-08-03T01:38:29.290Z,946.4
2023-08-03T01:39:31.080Z,946.4
2023-08-03T01:40:32.861Z,946.4
2023-08-03T01:41:34.600Z,946.4
2023-08-03T01:42:36.445Z,946.4
2023-08-03T01:43:38.156Z,946.4
2023-08-03T01:44:39.900Z,946.5
2023-08-03T01:45:41.617Z,946.4
2023-08-03T01:46:43.700Z,946.5
2023-08-03T01:47:45.669Z,946.5
2023-08-03T01:48:47.527Z,946.5
2023-08-03T01:49:49.313Z,946.5
2023-08-03T01:50:51.043Z,946.5
2023-08-03T01:51:52.792Z,946.5
2023-08-03T01:52:54.706Z,946.4
2023-08-03T01:53:56.446Z,946.5
2023-08-03T01:54:58.209Z,946.5
2023-08-03T01:55:59.941Z,946.5
2023-08-03T01:57:01.714Z,946.5
2023-08-03T01:58:03.481Z,946.5
2023-08-03T01:59:05.287Z,946.5
2023-08-03T02:00:07.089Z,946.5
2023-08-03T02:01:08.808Z,946.5
2023-08-03T02:02:10.698Z,946.5
2023-08-03T02:03:12.721Z,946.5
2023-08-03T02:04:14.606Z,946.5
2023-08-03T02:05:16.516Z,946.5
2023-08-03T02:06:18.333Z,946.5
2023-08-03T02:07:20.099Z,946.5
2023-08-03T02:08:24.907Z,946.5
2023-08-03T02:09:26.692Z,946.5
2023-08-03T02:10:28.539Z,946.5
2023-08-03T02:11:30.353Z,946.5
2023-08-03T02:12:32.017Z,946.5
2023-08-03T02:13:33.717Z,946.5
2023-08-03T02:14:35.547Z,946.5
2023-08-03T02:15:37.247Z,946.5
2023-08-03T02:16:39.198Z,946.5
2023-08-03T02:17:41.167Z,946.5
2023-08-03T02:18:43.140Z,946.5
2023-08-03T02:19:44.849Z,946.5
2023-08-03T02:20:46.625Z,946.5
2023-08-03T02:21:48.333Z,946.5
2023-08-03T02:22:50.099Z,946.5
2023-08-03T02:23:51.992Z,946.5
2023-08-03T02:24:53.785Z,946.4
2023-08-03T02:25:55.547Z,946.4
2023-08-03T02:26:57.451Z,946.4
2023-08-03T02:27:59.134Z,946.4
2023-08-03T02:29:00.883Z,946.4
2023-08-03T02:30:02.693Z,946.4
2023-08-03T02:31:04.367Z,946.4
2023-08-03T02:32:06.187Z,946.4
2023-08-03T02:33:07.996Z,946.5
2023-08-03T02:34:09.701Z,946.5
2023-08-03T02:35:11.379Z,946.5
2023-08-03T02:36:13.172Z,946.5
2023-08-03T02:37:14.844Z,946.5
2023-08-03T02:38:16.527Z,946.6
2023-08-03T02:39:18.229Z,946.6
2023-08-03T02:40:22.301Z,946.6
2023-08-03T02:41:24.245Z,946.5
2023-08-03T02:42:26.026Z,946.5
2023-08-03T02:43:27.706Z,946.5
2023-08-03T02:44:29.547Z,946.5
2023-08-03T02:45:31.279Z,946.5
2023-08-03T02:46:33.115Z,946.5
2023-08-03T02:47:35.027Z,946.5
2023-08-03T02:48:36.799Z,946.6
2023-08-03T02:49:38.471Z,946.5
2023-08-03T02:50:43.289Z,946.6
2023-08-03T02:51:46.028Z,946.5
2023-08-03T02:52:48.389Z,946.6
2023-08-03T02:53:50.213Z,946.5
2023-08-03T02:54:52.208Z,946.6
2023-08-03T02:55:54.002Z,946.6
2023-08-03T02:56:55.707Z,946.6
2023-08-03T02:57:57.517Z,946.6
2023-08-03T02:58:59.449Z,946.6
2023-08-03T03:00:01.401Z,946.6
2023-08-03T03:01:03.268Z,946.6
2023-08-03T03:02:05.165Z,946.6
2023-08-03T03:03:07.113Z,946.6
2023-08-03T03:04:09.219Z,946.6
2023-08-03T03:05:10.998Z,946.5
2023-08-03T03:06:12.914Z,946.6
2023-08-03T03:07:14.910Z,946.6
2023-08-03T03:08:16.622Z,946.6
2023-08-03T03:09:18.327Z,946.6
2023-08-03T03:10:20.130Z,946.6
2023-08-03T03:11:21.854Z,946.6
2023-08-03T03:12:23.584Z,946.6
2023-08-03T03:13:25.323Z,946.7
2023-08-03T03:14:27.059Z,946.7
2023-08-03T03:15:28.932Z,946.7
2023-08-03T03:16:30.786Z,946.7
2023-08-03T03:17:35.281Z,946.7
2023-08-03T03:18:37.211Z,946.7
2023-08-03T03:19:38.908Z,946.8
2023-08-03T03:20:40.759Z,946.7
2023-08-03T03:21:43.849Z,946.7
2023-08-03T03:22:46.079Z,946.7
2023-08-03T03:23:47.765Z,946.7
2023-08-03T03:24:49.438Z,946.7
2023-08-03T03:25:51.145Z,946.7
2023-08-03T03:26:53.350Z,946.8
2023-08-03T03:27:58.139Z,946.8
2023-08-03T03:28:59.881Z,946.8
2023-08-03T03:30:01.577Z,946.8
2023-08-03T03:31:03.409Z,946.8
2023-08-03T03:32:05.254Z,946.8
2023-08-03T03:33:10.089Z,946.8
2023-08-03T03:34:12.022Z,946.8
2023-08-03T03:35:13.728Z,946.8
2023-08-03T03:36:15.525Z,946.8
2023-08-03T03:37:17.229Z,946.8
2023-08-03T03:38:19.030Z,946.8
2023-08-03T03:39:20.763Z,946.8
2023-08-03T03:40:22.486Z,946.8
2023-08-03T03:41:24.317Z,946.8
2023-08-03T03:42:26.018Z,946.8
2023-08-03T03:43:27.717Z,946.9
2023-08-03T03:44:29.512Z,946.8
2023-08-03T03:45:31.434Z,946.9
2023-08-03T03:46:33.427Z,946.9
2023-08-03T03:47:35.540Z,946.8
2023-08-03T03:48:37.792Z,946.9
2023-08-03T03:49:39.951Z,946.9
2023-08-03T03:50:42.094Z,946.9
2023-08-03T03:51:47.515Z,946.9
2023-08-03T03:52:49.269Z,946.9
2023-08-03T03:53:51.077Z,946.9
2023-08-03T03:54:52.796Z,946.9
2023-08-03T03:55:54.500Z,946.9
2023-08-03T03:56:56.302Z,946.9
2023-08-03T03:57:58.185Z,946.9
2023-08-03T03:59:02.670Z,947
2023-08-03T04:00:04.468Z,946.9
2023-08-03T04:01:06.426Z,946.9
2023-08-03T04:02:08.324Z,947
2023-08-03T04:03:10.442Z,947
2023-08-03T04:04:12.303Z,946.9
2023-08-03T04:05:14.034Z,947
2023-08-03T04:06:18.649Z,947
2023-08-03T04:07:20.533Z,947
2023-08-03T04:08:22.270Z,946.9
2023-08-03T04:09:24.015Z,946.9
2023-08-03T04:10:25.694Z,947
2023-08-03T04:11:27.398Z,947
2023-08-03T04:12:29.175Z,946.9
2023-08-03T04:13:30.972Z,947
2023-08-03T04:14:32.731Z,946.9
2023-08-03T04:15:34.618Z,946.9
2023-08-03T04:16:36.368Z,946.9
2023-08-03T04:17:38.398Z,946.9
2023-08-03T04:18:40.127Z,946.9
2023-08-03T04:19:41.879Z,947
2023-08-03T04:20:43.598Z,946.9
2023-08-03T04:21:46.342Z,947
2023-08-03T04:22:48.932Z,947
2023-08-03T04:23:50.684Z,947
2023-08-03T04:24:52.410Z,947
2023-08-03T04:25:54.137Z,947
2023-08-03T04:26:55.993Z,947
2023-08-03T04:27:57.778Z,947
2023-08-03T04:28:59.488Z,947
2023-08-03T04:30:01.255Z,947
2023-08-03T04:31:03.427Z,947
2023-08-03T04:32:05.338Z,947.1
2023-08-03T04:33:07.105Z,947.1
2023-08-03T04:34:08.845Z,947.1
2023-08-03T04:35:10.585Z,947.1
2023-08-03T04:36:12.276Z,947.1
2023-08-03T04:37:13.958Z,947.1
2023-08-03T04:38:15.747Z,947.1
2023-08-03T04:39:17.509Z,947.1
2023-08-03T04:40:19.371Z,947.1
2023-08-03T04:41:21.052Z,947.2
2023-08-03T04:42:22.819Z,947.2
2023-08-03T04:43:24.544Z,947.2
2023-08-03T04:44:26.231Z,947.2
2023-08-03T04:45:27.956Z,947.2
2023-08-03T04:46:29.815Z,947.2
2023-08-03T04:47:34.827Z,947.2
2023-08-03T04:48:36.742Z,947.2
2023-08-03T04:49:38.497Z,947.2
2023-08-03T04:50:40.215Z,947.2
2023-08-03T04:51:42.933Z,947.2
2023-08-03T04:52:45.346Z,947.2
2023-08-03T04:53:47.109Z,947.2
2023-08-03T04:54:48.974Z,947.2
2023-08-03T04:55:50.712Z,947.2
2023-08-03T04:56:54.263Z,947.2
2023-08-03T04:57:55.985Z,947.2
2023-08-03T04:58:57.766Z,947.2
2023-08-03T04:59:59.537Z,947.2
2023-08-03T05:01:01.755Z,947.2
2023-08-03T05:02:04.027Z,947.2
2023-08-03T05:03:06.328Z,947.2
2023-08-03T05:04:08.647Z,947.2
2023-08-03T05:05:10.531Z,947.2
2023-08-03T05:06:12.546Z,947.2
2023-08-03T05:07:14.474Z,947.2
2023-08-03T05:08:16.416Z,947.2
2023-08-03T05:09:18.262Z,947.2
2023-08-03T05:10:20.000Z,947.2
2023-08-03T05:11:21.795Z,947.2
2023-08-03T05:12:23.500Z,947.2
2023-08-03T05:13:25.235Z,947.2
2023-08-03T05:14:26.995Z,947.2
2023-08-03T05:15:28.848Z,947.2
2023-08-03T05:16:30.711Z,947.3
2023-08-03T05:17:33.009Z,947.3
2023-08-03T05:18:34.826Z,947.3
2023-08-03T05:19:36.702Z,947.3
2023-08-03T05:20:38.474Z,947.3
2023-08-03T05:21:40.233Z,947.3
2023-08-03T05:22:42.101Z,947.3
2023-08-03T05:23:43.801Z,947.3
2023-08-03T05:24:45.600Z,947.3
2023-08-03T05:25:47.294Z,947.3
2023-08-03T05:26:49.026Z,947.3
2023-08-03T05:27:50.784Z,947.4
2023-08-03T05:28:52.490Z,947.4
2023-08-03T05:29:54.374Z,947.3
2023-08-03T05:30:56.311Z,947.4
2023-08-03T05:31:58.092Z,947.3
2023-08-03T05:32:59.907Z,947.3
2023-08-03T05:34:01.773Z,947.3
2023-08-03T05:35:03.506Z,947.4
2023-08-03T05:36:05.247Z,947.4
2023-08-03T05:37:06.947Z,947.4
2023-08-03T05:38:08.697Z,947.4
2023-08-03T05:39:10.434Z,947.4
2023-08-03T05:40:12.178Z,947.4
2023-08-03T05:41:13.886Z,947.4
2023-08-03T05:42:15.701Z,947.4
2023-08-03T05:43:17.424Z,947.4
2023-08-03T05:44:19.127Z,947.4
2023-08-03T05:45:20.893Z,947.4
2023-08-03T05:46:28.426Z,947.5
2023-08-03T05:47:30.422Z,947.4
2023-08-03T05:48:32.335Z,947.4
2023-08-03T05:49:34.103Z,947.4
2023-08-03T05:50:36.599Z,947.4
2023-08-03T05:51:38.379Z,947.4
2023-08-03T05:52:40.086Z,947.4
2023-08-03T05:53:41.900Z,947.4
2023-08-03T05:54:47.835Z,947.4
2023-08-03T05:56:12.915Z,947.4
2023-08-03T05:57:14.789Z,947.4
2023-08-03T05:58:16.687Z,947.4
2023-08-03T05:59:18.445Z,947.4
2023-08-03T06:00:20.165Z,947.4
2023-08-03T06:01:22.012Z,947.5
2023-08-03T06:02:23.900Z,947.4
2023-08-03T06:03:25.591Z,947.5
2023-08-03T06:04:30.527Z,947.5
2023-08-03T06:05:32.258Z,947.5
2023-08-03T06:06:34.459Z,947.5
2023-08-03T06:07:36.522Z,947.5
2023-08-03T06:08:38.279Z,947.5
2023-08-03T06:09:40.008Z,947.4
2023-08-03T06:10:41.763Z,947.5
2023-08-03T06:11:43.975Z,947.5
2023-08-03T06:12:45.960Z,947.5
2023-08-03T06:13:47.754Z,947.5
2023-08-03T06:14:49.465Z,947.5
2023-08-03T06:15:51.198Z,947.5
2023-08-03T06:16:52.973Z,947.5
2023-08-03T06:17:54.812Z,947.5
2023-08-03T06:18:56.759Z,947.6
2023-08-03T06:19:58.616Z,947.5
2023-08-03T06:21:00.597Z,947.5
2023-08-03T06:22:02.364Z,947.5
2023-08-03T06:23:04.178Z,947.6
2023-08-03T06:24:05.860Z,947.6
2023-08-03T06:25:07.754Z,947.6
2023-08-03T06:26:09.928Z,947.6
2023-08-03T06:27:11.737Z,947.5
2023-08-03T06:28:13.474Z,947.6
2023-08-03T06:29:15.233Z,947.6
2023-08-03T06:30:17.035Z,947.6
2023-08-03T06:31:18.939Z,947.6
2023-08-03T06:32:20.795Z,947.6
2023-08-03T06:33:22.488Z,947.6
2023-08-03T06:34:24.175Z,947.5
2023-08-03T06:35:25.957Z,947.5
2023-08-03T06:36:27.844Z,947.6
2023-08-03T06:37:29.575Z,947.5
2023-08-03T06:38:31.326Z,947.5
2023-08-03T06:39:33.207Z,947.6
2023-08-03T06:40:34.911Z,947.5
2023-08-03T06:41:36.625Z,947.6
2023-08-03T06:42:38.332Z,947.6
2023-08-03T06:43:40.169Z,947.6
2023-08-03T06:44:41.987Z,947.6
2023-08-03T06:45:44.024Z,947.6
2023-08-03T06:46:46.034Z,947.6
2023-08-03T06:47:48.033Z,947.6
2023-08-03T06:48:49.888Z,947.6
2023-08-03T06:49:51.631Z,947.7
2023-08-03T06:50:53.399Z,947.6
2023-08-03T06:51:55.231Z,947.6
2023-08-03T06:52:59.681Z,947.6
2023-08-03T06:54:01.424Z,947.6
2023-08-03T06:55:03.185Z,947.6
2023-08-03T06:56:04.962Z,947.6
2023-08-03T06:57:06.793Z,947.6
2023-08-03T06:58:09.317Z,947.6
2023-08-03T06:59:11.040Z,947.5
2023-08-03T07:00:12.875Z,947.6
2023-08-03T07:01:14.884Z,947.6
2023-08-03T07:02:16.952Z,947.6
2023-08-03T07:03:19.423Z,947.6
2023-08-03T07:04:21.682Z,947.6
2023-08-03T07:05:23.407Z,947.5
2023-08-03T07:06:25.552Z,947.6
2023-08-03T07:07:27.293Z,947.6
2023-08-03T07:08:29.112Z,947.6
2023-08-03T07:09:30.885Z,947.5
2023-08-03T07:10:32.593Z,947.5
2023-08-03T07:11:34.351Z,947.6
2023-08-03T07:12:36.056Z,947.6
2023-08-03T07:13:38.122Z,947.5
2023-08-03T07:14:39.857Z,947.5
2023-08-03T07:15:42.101Z,947.5
2023-08-03T07:16:44.128Z,947.5
2023-08-03T07:17:45.992Z,947.5
2023-08-03T07:18:48.117Z,947.6
2023-08-03T07:19:49.943Z,947.5
2023-08-03T07:20:51.649Z,947.5
2023-08-03T07:21:53.469Z,947.5
2023-08-03T07:22:55.190Z,947.5
2023-08-03T07:23:57.017Z,947.5
2023-08-03T07:25:01.364Z,947.5
2023-08-03T07:26:03.151Z,947.5
2023-08-03T07:27:04.981Z,947.5
2023-08-03T07:28:06.883Z,947.5
2023-08-03T07:29:08.598Z,947.5
2023-08-03T07:30:10.406Z,947.5
2023-08-03T07:31:12.309Z,947.5
2023-08-03T07:32:14.183Z,947.5
2023-08-03T07:33:16.128Z,947.5
2023-08-03T07:34:18.033Z,947.5
2023-08-03T07:35:19.943Z,947.4
2023-08-03T07:36:21.672Z,947.4
2023-08-03T07:37:23.491Z,947.4
2023-08-03T07:38:25.359Z,947.4
2023-08-03T07:39:30.188Z,947.4
2023-08-03T07:40:32.063Z,947.4
2023-08-03T07:41:35.988Z,947.4
2023-08-03T07:42:37.683Z,947.4
2023-08-03T07:43:39.404Z,947.4
2023-08-03T07:44:49.787Z,947.4
2023-08-03T07:45:52.432Z,947.4
2023-08-03T07:46:54.393Z,947.4
2023-08-03T07:47:56.398Z,947.4
2023-08-03T07:48:58.353Z,947.3
2023-08-03T07:50:00.288Z,947.3
2023-08-03T07:51:02.145Z,947.3
2023-08-03T07:52:04.268Z,947.3
2023-08-03T07:53:06.355Z,947.3
2023-08-03T07:54:08.076Z,947.3
2023-08-03T07:55:11.090Z,947.4
2023-08-03T07:56:12.801Z,947.3
2023-08-03T07:57:14.598Z,947.4
2023-08-03T07:58:16.314Z,947.3
2023-08-03T07:59:18.032Z,947.3
2023-08-03T08:00:19.746Z,947.3
2023-08-03T08:01:21.825Z,947.3
2023-08-03T08:02:24.174Z,947.3
2023-08-03T08:03:26.239Z,947.3
2023-08-03T08:04:28.142Z,947.3
2023-08-03T08:05:32.646Z,947.3
2023-08-03T08:06:34.390Z,947.3
2023-08-03T08:07:37.345Z,947.3
2023-08-03T08:08:39.122Z,947.3
2023-08-03T08:09:40.837Z,947.3
2023-08-03T08:10:42.859Z,947.3
2023-08-03T08:11:45.990Z,947.3
2023-08-03T08:12:50.393Z,947.3
2023-08-03T08:13:52.178Z,947.3
2023-08-03T08:14:54.029Z,947.3
2023-08-03T08:15:56.363Z,947.2
2023-08-03T08:17:15.887Z,947.2
2023-08-03T08:18:18.333Z,947.3
2023-08-03T08:19:20.516Z,947.3
2023-08-03T08:20:24.683Z,947.2
2023-08-03T08:21:26.795Z,947.2
2023-08-03T08:22:29.554Z,947.2
2023-08-03T08:23:31.550Z,947.2
2023-08-03T08:24:33.711Z,947.2
2023-08-03T08:25:39.151Z,947.2
2023-08-03T08:26:42.034Z,947.2
2023-08-03T08:27:44.773Z,947.2
2023-08-03T08:29:07.573Z,947.2
2023-08-03T08:30:12.338Z,947.2
2023-08-03T08:31:14.443Z,947.2
2023-08-03T08:32:16.669Z,947.2
2023-08-03T08:33:18.986Z,947.2
2023-08-03T08:34:20.944Z,947.2
2023-08-03T08:35:22.742Z,947.2
2023-08-03T08:36:24.604Z,947.1
2023-08-03T08:37:26.435Z,947.1
2023-08-03T08:38:28.158Z,947.1
2023-08-03T08:39:32.985Z,947.1
2023-08-03T08:40:34.837Z,947.1
2023-08-03T08:41:36.532Z,947.1
2023-08-03T08:42:38.553Z,947.1
2023-08-03T08:43:40.543Z,947
2023-08-03T08:44:42.274Z,947
2023-08-03T08:45:44.067Z,947
2023-08-03T08:46:46.711Z,947
2023-08-03T08:47:49.654Z,947
2023-08-03T08:48:52.824Z,947
2023-08-03T08:50:23.930Z,947
2023-08-03T08:57:12.935Z,947
2023-08-03T08:58:20.028Z,947
2023-08-03T09:00:35.349Z,947
2023-08-03T09:01:37.204Z,947
2023-08-03T09:02:39.344Z,947
2023-08-03T09:04:55.658Z,946.9
2023-08-03T09:07:12.259Z,947
2023-08-03T09:08:14.212Z,947
2023-08-03T09:09:15.971Z,947
2023-08-03T09:10:17.757Z,946.9
2023-08-03T09:11:19.854Z,946.9
2023-08-03T09:12:22.244Z,946.9
2023-08-03T09:13:24.267Z,946.9
2023-08-03T09:14:26.224Z,946.9
2023-08-03T09:15:28.142Z,946.9
2023-08-03T09:16:30.091Z,946.9
2023-08-03T09:17:35.163Z,946.9
2023-08-03T09:18:37.243Z,946.9
2023-08-03T09:20:44.881Z,946.9
2023-08-03T09:25:42.366Z,946.8
2023-08-03T09:28:37.373Z,946.8
2023-08-03T09:29:40.690Z,946.8
2023-08-03T09:30:42.563Z,946.8
2023-08-03T09:32:58.115Z,946.8
2023-08-03T09:34:00.503Z,946.8
2023-08-03T09:35:02.715Z,946.8
2023-08-03T09:36:04.537Z,946.7
2023-08-03T09:37:10.420Z,946.7
2023-08-03T09:38:12.505Z,946.7
2023-08-03T09:40:28.389Z,946.7
2023-08-03T09:41:58.950Z,946.7
2023-08-03T09:43:06.216Z,946.7
2023-08-03T09:44:08.017Z,946.6
2023-08-03T09:45:33.961Z,946.6
2023-08-03T09:46:35.854Z,946.6
2023-08-03T09:47:38.228Z,946.6
2023-08-03T09:48:40.447Z,946.5
2023-08-03T09:49:42.241Z,946.6
2023-08-03T09:50:44.575Z,946.5
2023-08-03T09:53:00.878Z,946.5
2023-08-03T09:55:16.605Z,946.5
2023-08-03T09:56:18.496Z,946.5
2023-08-03T09:57:23.703Z,946.5
2023-08-03T09:58:25.576Z,946.5
2023-08-03T09:59:27.609Z,946.5
2023-08-03T10:00:30.107Z,946.5
2023-08-03T10:01:32.100Z,946.5
2023-08-03T10:02:33.909Z,946.5
2023-08-03T10:03:36.037Z,946.5
2023-08-03T10:04:38.143Z,946.4
2023-08-03T10:05:39.909Z,946.4
2023-08-03T10:06:41.800Z,946.4
2023-08-03T10:07:43.744Z,946.4
2023-08-03T10:08:45.528Z,946.4
2023-08-03T10:09:49.754Z,946.4
2023-08-03T10:10:51.635Z,946.4
2023-08-03T10:11:53.410Z,946.4
2023-08-03T10:12:55.327Z,946.4
2023-08-03T10:13:59.834Z,946.4
2023-08-03T10:15:01.617Z,946.4
2023-08-03T10:16:04.074Z,946.3
2023-08-03T10:17:06.674Z,946.4
2023-08-03T10:18:08.809Z,946.3
2023-08-03T10:19:10.823Z,946.3
2023-08-03T10:20:12.617Z,946.3
2023-08-03T10:21:14.582Z,946.3
2023-08-03T10:22:16.378Z,946.2
2023-08-03T10:23:18.219Z,946.2
2023-08-03T10:24:20.523Z,946.2
2023-08-03T10:25:22.450Z,946.2
2023-08-03T10:26:24.513Z,946.2
2023-08-03T10:27:27.056Z,946.1
2023-08-03T10:28:29.013Z,946.1
2023-08-03T10:29:30.848Z,946.1
2023-08-03T10:30:32.993Z,946.1
2023-08-03T10:31:35.052Z,946
2023-08-03T10:32:39.614Z,946
2023-08-03T10:33:41.487Z,946
2023-08-03T10:34:43.498Z,946
2023-08-03T10:35:45.271Z,946
2023-08-03T10:36:48.405Z,946
2023-08-03T10:37:50.864Z,946
2023-08-03T10:38:52.756Z,945.9
2023-08-03T10:39:55.085Z,945.9
2023-08-03T10:40:57.315Z,945.9
2023-08-03T10:41:59.084Z,945.9
2023-08-03T10:43:01.154Z,945.9
2023-08-03T10:44:03.233Z,945.9
2023-08-03T10:45:05.127Z,945.9
2023-08-03T10:46:07.504Z,945.9
2023-08-03T10:47:10.251Z,945.9
2023-08-03T10:48:13.460Z,945.9
2023-08-03T10:49:15.876Z,945.9
2023-08-03T10:50:18.052Z,945.9
2023-08-03T10:51:19.856Z,946
2023-08-03T10:52:21.744Z,945.9
2023-08-03T10:53:23.727Z,945.9
2023-08-03T10:54:25.489Z,945.9
2023-08-03T10:55:30.518Z,945.9
2023-08-03T10:56:32.677Z,945.9
2023-08-03T10:57:34.361Z,945.9
2023-08-03T10:58:36.401Z,945.9
2023-08-03T10:59:38.284Z,945.9
2023-08-03T11:00:40.136Z,945.9
2023-08-03T11:01:42.171Z,945.8
2023-08-03T11:02:44.784Z,945.8
2023-08-03T11:03:47.246Z,945.8
2023-08-03T11:04:49.448Z,945.8
2023-08-03T11:05:51.316Z,945.7
2023-08-03T11:06:53.234Z,945.7
2023-08-03T11:07:55.072Z,945.7
2023-08-03T11:08:57.026Z,945.7
2023-08-03T11:09:58.783Z,945.8
2023-08-03T11:11:03.583Z,945.8
2023-08-03T11:12:05.536Z,945.7
2023-08-03T11:13:07.325Z,945.7
2023-08-03T11:14:09.304Z,945.8
2023-08-03T11:15:11.062Z,945.7
2023-08-03T11:16:13.069Z,945.7
2023-08-03T11:17:15.262Z,945.7
2023-08-03T11:18:17.260Z,945.7
2023-08-03T11:19:21.828Z,945.7
2023-08-03T11:20:23.605Z,945.7
2023-08-03T11:21:25.350Z,945.7
2023-08-03T11:22:27.349Z,945.6
2023-08-03T11:23:29.404Z,945.7
2023-08-03T11:24:31.113Z,945.7
2023-08-03T11:25:33.033Z,945.6
2023-08-03T11:26:34.853Z,945.6
2023-08-03T11:27:36.703Z,945.7
2023-08-03T11:28:38.542Z,945.6
2023-08-03T11:29:44.389Z,945.6
2023-08-03T11:30:46.231Z,945.6
2023-08-03T11:31:51.021Z,945.6
2023-08-03T11:32:52.836Z,945.6
2023-08-03T11:33:54.875Z,945.6
2023-08-03T11:34:57.236Z,945.6
2023-08-03T11:35:59.065Z,945.6
2023-08-03T11:37:00.790Z,945.6
2023-08-03T11:38:02.650Z,945.6
2023-08-03T11:39:04.586Z,945.6
2023-08-03T11:40:06.462Z,945.5
2023-08-03T11:41:12.330Z,945.6
2023-08-03T11:42:14.408Z,945.5
2023-08-03T11:43:16.334Z,945.6
2023-08-03T11:44:18.078Z,945.6
2023-08-03T11:45:19.841Z,945.5
2023-08-03T11:46:21.552Z,945.5
2023-08-03T11:47:24.623Z,945.5
2023-08-03T11:48:26.667Z,945.5
2023-08-03T11:49:28.651Z,945.5
2023-08-03T11:50:30.426Z,945.4
2023-08-03T11:51:32.334Z,945.4
2023-08-03T11:52:34.324Z,945.4
2023-08-03T11:53:36.271Z,945.4
2023-08-03T11:54:38.147Z,945.4
2023-08-03T11:55:40.180Z,945.4
2023-08-03T11:56:46.142Z,945.4
2023-08-03T11:57:53.917Z,945.4
2023-08-03T11:58:55.773Z,945.4
2023-08-03T11:59:58.507Z,945.4
2023-08-03T12:01:00.517Z,945.4
2023-08-03T12:02:02.785Z,945.4
2023-08-03T12:03:05.306Z,945.4
2023-08-03T12:04:16.066Z,945.4
2023-08-03T12:05:20.520Z,945.4
2023-08-03T12:07:36.851Z,945.5
2023-08-03T12:08:40.055Z,945.4
2023-08-03T12:09:42.005Z,945.5
2023-08-03T12:10:44.097Z,945.4
2023-08-03T12:12:48.870Z,945.5
2023-08-03T12:13:50.663Z,945.5
2023-08-03T12:14:52.654Z,945.4
2023-08-03T12:15:54.409Z,945.4
2023-08-03T12:16:59.976Z,945.4
2023-08-03T12:18:01.984Z,945.4
2023-08-03T12:19:04.009Z,945.4
2023-08-03T12:20:06.092Z,945.4
2023-08-03T12:21:08.055Z,945.4
2023-08-03T12:22:13.144Z,945.4
2023-08-03T12:23:15.121Z,945.4
2023-08-03T12:24:17.031Z,945.4
2023-08-03T12:25:23.172Z,945.4
2023-08-03T12:26:25.122Z,945.4
2023-08-03T12:27:27.027Z,945.4
2023-08-03T12:28:28.966Z,945.4
2023-08-03T12:29:30.720Z,945.4
2023-08-03T12:30:32.534Z,945.4
2023-08-03T12:31:34.617Z,945.4
2023-08-03T12:32:37.058Z,945.4
2023-08-03T12:33:39.544Z,945.4
2023-08-03T12:34:41.708Z,945.4
2023-08-03T12:35:43.454Z,945.4
2023-08-03T12:36:46.914Z,945.4
2023-08-03T12:37:49.420Z,945.4
2023-08-03T12:38:51.226Z,945.4
2023-08-03T12:39:53.183Z,945.4
2023-08-03T12:40:54.998Z,945.4
2023-08-03T12:41:56.804Z,945.4
2023-08-03T12:42:58.777Z,945.4
2023-08-03T12:44:00.774Z,945.4
2023-08-03T12:45:02.569Z,945.4
2023-08-03T12:46:04.636Z,945.4
2023-08-03T12:47:10.194Z,945.3
2023-08-03T12:48:18.557Z,945.3
2023-08-03T12:49:20.835Z,945.3
2023-08-03T12:50:22.803Z,945.3
2023-08-03T12:51:24.729Z,945.3
2023-08-03T12:52:26.601Z,945.3
2023-08-03T12:53:28.749Z,945.2
2023-08-03T12:54:30.816Z,945.2
2023-08-03T12:55:32.528Z,945.2
2023-08-03T12:56:34.244Z,945.3
2023-08-03T12:57:36.141Z,945.2
2023-08-03T12:58:37.849Z,945.3
2023-08-03T12:59:40.605Z,945.3
2023-08-03T13:00:43.342Z,945.3
2023-08-03T13:01:45.735Z,945.3
2023-08-03T13:02:48.035Z,945.3
2023-08-03T13:03:50.111Z,945.3
2023-08-03T13:04:52.579Z,945.3
2023-08-03T13:05:54.851Z,945.3
2023-08-03T13:06:57.514Z,945.3
2023-08-03T13:07:59.687Z,945.3
2023-08-03T13:09:01.784Z,945.3
2023-08-03T13:10:03.619Z,945.3
2023-08-03T13:11:07.593Z,945.3
2023-08-03T13:12:09.618Z,945.3
2023-08-03T13:13:11.379Z,945.2
2023-08-03T13:14:14.949Z,945.3
2023-08-03T13:15:16.848Z,945.2
2023-08-03T13:16:18.916Z,945.2
2023-08-03T13:17:21.210Z,945.2
2023-08-03T13:18:23.719Z,945.2
2023-08-03T13:19:26.148Z,945.2
2023-08-03T13:20:28.315Z,945.2
2023-08-03T13:21:30.296Z,945.2
2023-08-03T13:22:32.012Z,945.2
2023-08-03T13:23:33.779Z,945.2
2023-08-03T13:24:35.524Z,945.2
2023-08-03T13:25:37.291Z,945.2
2023-08-03T13:26:41.923Z,945.2
2023-08-03T13:27:43.693Z,945.2
2023-08-03T13:28:45.689Z,945.2
2023-08-03T13:29:47.626Z,945.1
2023-08-03T13:30:49.646Z,945.2
2023-08-03T13:31:51.577Z,945.1
2023-08-03T13:32:53.439Z,945.1
2023-08-03T13:33:55.319Z,945.1
2023-08-03T13:35:00.283Z,945.1
2023-08-03T13:36:02.296Z,945.1
2023-08-03T13:37:04.040Z,945.1
2023-08-03T13:38:10.981Z,945.1
2023-08-03T13:39:12.955Z,945.1
2023-08-03T13:40:14.699Z,945.1
2023-08-03T13:41:16.892Z,945.1
2023-08-03T13:42:18.821Z,945.1
2023-08-03T13:43:20.652Z,945.2
2023-08-03T13:44:22.605Z,945.1
2023-08-03T13:45:24.594Z,945.1
2023-08-03T13:46:26.420Z,945.1
2023-08-03T13:47:28.829Z,945.1
2023-08-03T13:48:31.026Z,945.1
2023-08-03T13:49:32.959Z,945.1